sensor_id;sensor_type;location;lat;lon;timestamp;pressure;altitude;pressure_sealevel;temperature;humidity
58955;BME280;45815;52.334;5.024;2023-12-28T00:01:46;100708.84;;;9.86;100.00
58955;BME280;45815;52.334;5.024;2023-12-28T00:04:12;100698.38;;;9.87;100.00
58955;BME280;45815;52.334;5.024;2023-12-28T00:06:37;100715.81;;;9.85;100.00
58955;BME280;45815;52.334;5.024;2023-12-28T00:09:02;100717.59;;;9.86;100.00
58955;BME280;45815;52.334;5.024;2023-12-28T00:11:28;100721.97;;;9.87;100.00
58955;BME280;45815;52.334;5.024;2023-12-28T00:13:53;100712.31;;;9.83;100.00
58955;BME280;45815;52.334;5.024;2023-12-28T00:16:19;100728.22;;;9.94;100.00
58955;BME280;45815;52.334;5.024;2023-12-28T00:18:44;100726.56;;;9.98;100.00
58955;BME280;45815;52.334;5.024;2023-12-28T00:21:09;100725.75;;;10.02;100.00
58955;BME280;45815;52.334;5.024;2023-12-28T00:23:35;100731.91;;;10.04;100.00
58955;BME280;45815;52.334;5.024;2023-12-28T00:26:00;100730.19;;;10.06;100.00
58955;BME280;45815;52.334;5.024;2023-12-28T00:28:26;100738.19;;;10.12;100.00
58955;BME280;45815;52.334;5.024;2023-12-28T00:30:51;100730.38;;;10.15;100.00
58955;BME280;45815;52.334;5.024;2023-12-28T00:33:16;100720.75;;;10.14;100.00
58955;BME280;45815;52.334;5.024;2023-12-28T00:35:42;100725.19;;;10.18;100.00
58955;BME280;45815;52.334;5.024;2023-12-28T00:38:09;100734.78;;;10.16;100.00
58955;BME280;45815;52.334;5.024;2023-12-28T00:40:34;100724.34;;;10.19;100.00
58955;BME280;45815;52.334;5.024;2023-12-28T00:42:59;100719.09;;;10.19;100.00
58955;BME280;45815;52.334;5.024;2023-12-28T00:45:25;100732.22;;;10.19;100.00
58955;BME280;45815;52.334;5.024;2023-12-28T00:47:51;100737.47;;;10.19;100.00
58955;BME280;45815;52.334;5.024;2023-12-28T00:50:17;100741.84;;;10.20;100.00
58955;BME280;45815;52.334;5.024;2023-12-28T00:52:43;100742.72;;;10.19;100.00
58955;BME280;45815;52.334;5.024;2023-12-28T00:55:08;100739.22;;;10.19;100.00
58955;BME280;45815;52.334;5.024;2023-12-28T00:57:34;100752.31;;;10.20;100.00
58955;BME280;45815;52.334;5.024;2023-12-28T01:00:00;100728.69;;;10.17;100.00
58955;BME280;45815;52.334;5.024;2023-12-28T01:02:26;100737.47;;;10.19;100.00
58955;BME280;45815;52.334;5.024;2023-12-28T01:04:51;100743.53;;;10.18;100.00
58955;BME280;45815;52.334;5.024;2023-12-28T01:07:16;100745.28;;;10.16;100.00
58955;BME280;45815;52.334;5.024;2023-12-28T01:09:42;100744.41;;;10.17;100.00
58955;BME280;45815;52.334;5.024;2023-12-28T01:12:08;100745.28;;;10.16;100.00
58955;BME280;45815;52.334;5.024;2023-12-28T01:14:33;100741.78;;;10.17;100.00
58955;BME280;45815;52.334;5.024;2023-12-28T01:16:58;100747.00;;;10.15;100.00
58955;BME280;45815;52.334;5.024;2023-12-28T01:19:24;100747.97;;;10.19;100.00
58955;BME280;45815;52.334;5.024;2023-12-28T01:21:50;100734.84;;;10.19;100.00
58955;BME280;45815;52.334;5.024;2023-12-28T01:24:15;100739.16;;;10.17;100.00
58955;BME280;45815;52.334;5.024;2023-12-28T01:26:41;100749.66;;;10.17;100.00
58955;BME280;45815;52.334;5.024;2023-12-28T01:29:06;100736.50;;;10.14;100.00
58955;BME280;45815;52.334;5.024;2023-12-28T01:31:31;100739.13;;;10.15;100.00
58955;BME280;45815;52.334;5.024;2023-12-28T01:33:57;100754.03;;;10.18;100.00
58955;BME280;45815;52.334;5.024;2023-12-28T01:36:22;100745.38;;;10.22;100.00
58955;BME280;45815;52.334;5.024;2023-12-28T01:38:48;100746.16;;;10.17;100.00
58955;BME280;45815;52.334;5.024;2023-12-28T01:41:14;100755.88;;;10.22;100.00
58955;BME280;45815;52.334;5.024;2023-12-28T01:43:41;100740.13;;;10.22;100.00
58955;BME280;45815;52.334;5.024;2023-12-28T01:46:09;100751.53;;;10.24;100.00
58955;BME280;45815;52.334;5.024;2023-12-28T01:48:35;100749.75;;;10.22;100.00
58955;BME280;45815;52.334;5.024;2023-12-28T01:51:02;100748.00;;;10.22;100.00
58955;BME280;45815;52.334;5.024;2023-12-28T01:53:28;100750.66;;;10.25;100.00
58955;BME280;45815;52.334;5.024;2023-12-28T01:55:54;100739.34;;;10.26;100.00
58955;BME280;45815;52.334;5.024;2023-12-28T01:58:20;100746.34;;;10.26;100.00
58955;BME280;45815;52.334;5.024;2023-12-28T02:00:46;100743.72;;;10.27;100.00
58955;BME280;45815;52.334;5.024;2023-12-28T02:03:12;100732.31;;;10.24;100.00
58955;BME280;45815;52.334;5.024;2023-12-28T02:05:38;100756.03;;;10.28;100.00
58955;BME280;45815;52.334;5.024;2023-12-28T02:08:04;100725.22;;;10.20;100.00
58955;BME280;45815;52.334;5.024;2023-12-28T02:10:30;100755.13;;;10.28;100.00
58955;BME280;45815;52.334;5.024;2023-12-28T02:12:55;100748.97;;;10.27;100.00
58955;BME280;45815;52.334;5.024;2023-12-28T02:15:21;100747.25;;;10.28;100.00
58955;BME280;45815;52.334;5.024;2023-12-28T02:17:55;100745.44;;;10.25;100.00
58955;BME280;45815;52.334;5.024;2023-12-28T02:20:24;100730.56;;;10.24;100.00
58955;BME280;45815;52.334;5.024;2023-12-28T02:22:52;100742.84;;;10.27;100.00
58955;BME280;45815;52.334;5.024;2023-12-28T02:25:17;100729.69;;;10.25;100.00
58955;BME280;45815;52.334;5.024;2023-12-28T02:27:45;100720.94;;;10.25;100.00
58955;BME280;45815;52.334;5.024;2023-12-28T02:30:18;100735.75;;;10.21;100.00
58955;BME280;45815;52.334;5.024;2023-12-28T02:33:09;100736.50;;;10.14;100.00
58955;BME280;45815;52.334;5.024;2023-12-28T02:35:41;100718.88;;;10.07;100.00
58955;BME280;45815;52.334;5.024;2023-12-28T02:38:12;100736.50;;;10.15;100.00
58955;BME280;45815;52.334;5.024;2023-12-28T02:40:40;100737.47;;;10.21;100.00
58955;BME280;45815;52.334;5.024;2023-12-28T02:43:06;100742.66;;;10.18;100.00
58955;BME280;45815;52.334;5.024;2023-12-28T02:45:32;100730.38;;;10.15;100.00
58955;BME280;45815;52.334;5.024;2023-12-28T02:47:58;100724.31;;;10.16;100.00
58955;BME280;45815;52.334;5.024;2023-12-28T02:50:24;100727.75;;;10.15;100.00
58955;BME280;45815;52.334;5.024;2023-12-28T02:52:49;100741.75;;;10.14;100.00
58955;BME280;45815;52.334;5.024;2023-12-28T02:55:15;100724.22;;;10.13;100.00
58955;BME280;45815;52.334;5.024;2023-12-28T02:57:40;100734.66;;;10.10;100.00
58955;BME280;45815;52.334;5.024;2023-12-28T03:00:06;100717.84;;;9.99;100.00
58955;BME280;45815;52.334;5.024;2023-12-28T03:02:36;100752.09;;;10.08;100.00
58955;BME280;45815;52.334;5.024;2023-12-28T03:05:03;100734.53;;;10.04;100.00
58955;BME280;45815;52.334;5.024;2023-12-28T03:07:29;100745.09;;;10.07;100.00
58955;BME280;45815;52.334;5.024;2023-12-28T03:09:54;100738.03;;;10.04;100.00
58955;BME280;45815;52.334;5.024;2023-12-28T03:12:20;100735.41;;;10.04;100.00
58955;BME280;45815;52.334;5.024;2023-12-28T03:14:45;100738.06;;;10.06;100.00
58955;BME280;45815;52.334;5.024;2023-12-28T03:17:10;100732.81;;;10.06;100.00
58955;BME280;45815;52.334;5.024;2023-12-28T03:19:37;100739.00;;;10.08;100.00
58955;BME280;45815;52.334;5.024;2023-12-28T03:22:02;100732.88;;;10.07;100.00
58955;BME280;45815;52.334;5.024;2023-12-28T03:24:28;100721.50;;;10.08;100.00
58955;BME280;45815;52.334;5.024;2023-12-28T03:26:53;100717.13;;;10.09;100.00
58955;BME280;45815;52.334;5.024;2023-12-28T03:29:19;100717.13;;;10.09;100.00
58955;BME280;45815;52.334;5.024;2023-12-28T03:31:45;100717.09;;;10.06;100.00
58955;BME280;45815;52.334;5.024;2023-12-28T03:34:10;100725.84;;;10.05;100.00
58955;BME280;45815;52.334;5.024;2023-12-28T03:36:36;100712.72;;;10.05;100.00
58955;BME280;45815;52.334;5.024;2023-12-28T03:39:01;100719.66;;;10.03;100.00
58955;BME280;45815;52.334;5.024;2023-12-28T03:41:28;100710.16;;;10.08;100.00
58955;BME280;45815;52.334;5.024;2023-12-28T03:43:55;100705.78;;;10.08;100.00
58955;BME280;45815;52.334;5.024;2023-12-28T03:46:20;100711.84;;;10.06;100.00
58955;BME280;45815;52.334;5.024;2023-12-28T03:48:46;100717.09;;;10.06;100.00
58955;BME280;45815;52.334;5.024;2023-12-28T03:51:15;100708.38;;;10.07;100.00
58955;BME280;45815;52.334;5.024;2023-12-28T03:53:41;100709.25;;;10.07;100.00
58955;BME280;45815;52.334;5.024;2023-12-28T03:56:07;100697.06;;;10.09;100.00
58955;BME280;45815;52.334;5.024;2023-12-28T03:58:33;100705.84;;;10.11;100.00
58955;BME280;45815;52.334;5.024;2023-12-28T04:00:58;100690.91;;;10.09;100.00
58955;BME280;45815;52.334;5.024;2023-12-28T04:03:24;100701.41;;;10.09;100.00
58955;BME280;45815;52.334;5.024;2023-12-28T04:05:50;100695.28;;;10.08;100.00
58955;BME280;45815;52.334;5.024;2023-12-28T04:08:16;100698.88;;;10.12;100.00
58955;BME280;45815;52.334;5.024;2023-12-28T04:10:41;100706.66;;;10.09;100.00
58955;BME280;45815;52.334;5.024;2023-12-28T04:13:07;100699.69;;;10.11;100.00
58955;BME280;45815;52.334;5.024;2023-12-28T04:15:33;100694.44;;;10.11;100.00
58955;BME280;45815;52.334;5.024;2023-12-28T04:17:58;100696.16;;;10.09;100.00
58955;BME280;45815;52.334;5.024;2023-12-28T04:20:24;100697.06;;;10.11;100.00
58955;BME280;45815;52.334;5.024;2023-12-28T04:22:49;100712.91;;;10.14;100.00
58955;BME280;45815;52.334;5.024;2023-12-28T04:25:15;100677.66;;;10.00;100.00
58955;BME280;45815;52.334;5.024;2023-12-28T04:27:44;100698.88;;;10.12;100.00
58955;BME280;45815;52.334;5.024;2023-12-28T04:30:12;100695.41;;;10.14;100.00
58955;BME280;45815;52.334;5.024;2023-12-28T04:32:38;100693.66;;;10.15;100.00
58955;BME280;45815;52.334;5.024;2023-12-28T04:35:03;100707.69;;;10.17;100.00
58955;BME280;45815;52.334;5.024;2023-12-28T04:37:29;100691.91;;;10.15;100.00
58955;BME280;45815;52.334;5.024;2023-12-28T04:39:56;100692.88;;;10.19;100.00
58955;BME280;45815;52.334;5.024;2023-12-28T04:42:23;100703.31;;;10.16;100.00
58955;BME280;45815;52.334;5.024;2023-12-28T04:44:48;100706.00;;;10.21;100.00
58955;BME280;45815;52.334;5.024;2023-12-28T04:47:13;100699.03;;;10.21;100.00
58955;BME280;45815;52.334;5.024;2023-12-28T04:49:39;100715.69;;;10.23;100.00
58955;BME280;45815;52.334;5.024;2023-12-28T04:52:04;100695.63;;;10.27;100.00
58955;BME280;45815;52.334;5.024;2023-12-28T04:54:30;100707.00;;;10.27;100.00
58955;BME280;45815;52.334;5.024;2023-12-28T04:56:55;100707.94;;;10.29;100.00
58955;BME280;45815;52.334;5.024;2023-12-28T04:59:21;100721.94;;;10.30;100.00
58955;BME280;45815;52.334;5.024;2023-12-28T05:01:47;100708.84;;;10.31;100.00
58955;BME280;45815;52.334;5.024;2023-12-28T05:04:12;100724.59;;;10.31;100.00
58955;BME280;45815;52.334;5.024;2023-12-28T05:06:38;100707.09;;;10.30;100.00
58955;BME280;45815;52.334;5.024;2023-12-28T05:09:03;100708.84;;;10.31;100.00
58955;BME280;45815;52.334;5.024;2023-12-28T05:11:30;100716.69;;;10.28;100.00
58955;BME280;45815;52.334;5.024;2023-12-28T05:13:55;100706.22;;;10.31;100.00
58955;BME280;45815;52.334;5.024;2023-12-28T05:16:21;100707.19;;;10.35;100.00
58955;BME280;45815;52.334;5.024;2023-12-28T05:18:46;100701.09;;;10.38;100.00
58955;BME280;45815;52.334;5.024;2023-12-28T05:21:12;100699.31;;;10.35;100.00
58955;BME280;45815;52.334;5.024;2023-12-28T05:23:38;100701.06;;;10.36;100.00
58955;BME280;45815;52.334;5.024;2023-12-28T05:26:03;100711.53;;;10.34;100.00
58955;BME280;45815;52.334;5.024;2023-12-28T05:28:29;100684.50;;;10.39;100.00
58955;BME280;45815;52.334;5.024;2023-12-28T05:30:54;100690.56;;;10.36;100.00
58955;BME280;45815;52.334;5.024;2023-12-28T05:33:20;100697.56;;;10.37;100.00
58955;BME280;45815;52.334;5.024;2023-12-28T05:35:46;100696.75;;;10.38;100.00
58955;BME280;45815;52.334;5.024;2023-12-28T05:38:11;100696.66;;;10.33;100.00
58955;BME280;45815;52.334;5.024;2023-12-28T05:40:36;100689.78;;;10.42;100.00
58955;BME280;45815;52.334;5.024;2023-12-28T05:43:02;100709.97;;;10.44;100.00
58955;BME280;45815;52.334;5.024;2023-12-28T05:45:27;100696.84;;;10.44;100.00
58955;BME280;45815;52.334;5.024;2023-12-28T05:47:53;100701.28;;;10.47;100.00
58955;BME280;45815;52.334;5.024;2023-12-28T05:50:18;100704.72;;;10.46;100.00
58955;BME280;45815;52.334;5.024;2023-12-28T05:52:44;100685.53;;;10.47;100.00
58955;BME280;45815;52.334;5.024;2023-12-28T05:55:09;100686.31;;;10.43;100.00
58955;BME280;45815;52.334;5.024;2023-12-28T05:57:35;100702.06;;;10.43;100.00
58955;BME280;45815;52.334;5.024;2023-12-28T06:00:00;100691.53;;;10.41;100.00
58955;BME280;45815;52.334;5.024;2023-12-28T06:02:25;100700.25;;;10.39;100.00
58955;BME280;45815;52.334;5.024;2023-12-28T06:04:51;100698.41;;;10.33;100.00
58955;BME280;45815;52.334;5.024;2023-12-28T06:07:16;100711.53;;;10.33;100.00
58955;BME280;45815;52.334;5.024;2023-12-28T06:09:41;100718.50;;;10.32;100.00
58955;BME280;45815;52.334;5.024;2023-12-28T06:12:07;100717.59;;;10.30;100.00
58955;BME280;45815;52.334;5.024;2023-12-28T06:14:32;100716.75;;;10.33;100.00
58955;BME280;45815;52.334;5.024;2023-12-28T06:16:58;100720.22;;;10.32;100.00
58955;BME280;45815;52.334;5.024;2023-12-28T06:19:23;100726.38;;;10.32;100.00
58955;BME280;45815;52.334;5.024;2023-12-28T06:21:49;100714.81;;;10.24;100.00
58955;BME280;45815;52.334;5.024;2023-12-28T06:24:15;100729.06;;;10.37;100.00
58955;BME280;45815;52.334;5.024;2023-12-28T06:26:41;100742.22;;;10.39;100.00
58955;BME280;45815;52.334;5.024;2023-12-28T06:29:07;100756.22;;;10.38;100.00
58955;BME280;45815;52.334;5.024;2023-12-28T06:31:33;100748.34;;;10.38;100.00
58955;BME280;45815;52.334;5.024;2023-12-28T06:34:04;100751.88;;;10.40;100.00
58955;BME280;45815;52.334;5.024;2023-12-28T06:36:30;100759.78;;;10.43;100.00
58955;BME280;45815;52.334;5.024;2023-12-28T06:38:56;100752.78;;;10.43;100.00
58955;BME280;45815;52.334;5.024;2023-12-28T06:41:21;100749.28;;;10.43;100.00
58955;BME280;45815;52.334;5.024;2023-12-28T06:43:47;100755.47;;;10.45;100.00
58955;BME280;45815;52.334;5.024;2023-12-28T06:46:13;100767.63;;;10.41;100.00
58955;BME280;45815;52.334;5.024;2023-12-28T06:48:38;100757.22;;;10.44;100.00
58955;BME280;45815;52.334;5.024;2023-12-28T06:51:06;100762.41;;;10.43;100.00
58955;BME280;45815;52.334;5.024;2023-12-28T06:53:32;100754.59;;;10.46;100.00
58955;BME280;45815;52.334;5.024;2023-12-28T06:55:57;100770.28;;;10.43;100.00
58955;BME280;45815;52.334;5.024;2023-12-28T06:58:23;100759.75;;;10.40;100.00
58955;BME280;45815;52.334;5.024;2023-12-28T07:00:49;100788.69;;;10.44;100.00
58955;BME280;45815;52.334;5.024;2023-12-28T07:03:14;100783.44;;;10.44;100.00
58955;BME280;45815;52.334;5.024;2023-12-28T07:05:40;100779.00;;;10.42;100.00
58955;BME280;45815;52.334;5.024;2023-12-28T07:08:05;100780.81;;;10.46;100.00
58955;BME280;45815;52.334;5.024;2023-12-28T07:10:31;100789.53;;;10.43;100.00
58955;BME280;45815;52.334;5.024;2023-12-28T07:12:56;100795.66;;;10.42;100.00
58955;BME280;45815;52.334;5.024;2023-12-28T07:15:21;100797.44;;;10.45;100.00
58955;BME280;45815;52.334;5.024;2023-12-28T07:17:47;100783.31;;;10.38;100.00
58955;BME280;45815;52.334;5.024;2023-12-28T07:20:12;100788.53;;;10.37;100.00
58955;BME280;45815;52.334;5.024;2023-12-28T07:22:38;100797.34;;;10.40;100.00
58955;BME280;45815;52.334;5.024;2023-12-28T07:25:07;100776.06;;;10.26;100.00
58955;BME280;45815;52.334;5.024;2023-12-28T07:27:34;100798.06;;;10.31;100.00
58955;BME280;45815;52.334;5.024;2023-12-28T07:29:59;100792.59;;;10.22;100.00
58955;BME280;45815;52.334;5.024;2023-12-28T07:32:25;100801.44;;;10.27;100.00
58955;BME280;45815;52.334;5.024;2023-12-28T07:34:53;100811.91;;;10.27;100.00
58955;BME280;45815;52.334;5.024;2023-12-28T07:37:19;100809.94;;;10.14;100.00
58955;BME280;45815;52.334;5.024;2023-12-28T07:39:44;100821.44;;;10.22;100.00
58955;BME280;45815;52.334;5.024;2023-12-28T07:42:10;100824.03;;;10.19;100.00
58955;BME280;45815;52.334;5.024;2023-12-28T07:44:35;100833.63;;;10.20;100.00
58955;BME280;45815;52.334;5.024;2023-12-28T07:47:01;100827.56;;;10.21;100.00
58955;BME280;45815;52.334;5.024;2023-12-28T07:49:27;100830.19;;;10.21;100.00
58955;BME280;45815;52.334;5.024;2023-12-28T07:51:52;100836.34;;;10.23;100.00
58955;BME280;45815;52.334;5.024;2023-12-28T07:54:18;100837.25;;;10.25;100.00
58955;BME280;45815;52.334;5.024;2023-12-28T07:56:43;100833.69;;;10.22;100.00
58955;BME280;45815;52.334;5.024;2023-12-28T07:59:09;100826.69;;;10.22;100.00
58955;BME280;45815;52.334;5.024;2023-12-28T08:01:35;100835.47;;;10.24;100.00
58955;BME280;45815;52.334;5.024;2023-12-28T08:04:00;100831.09;;;10.23;100.00
58955;BME280;45815;52.334;5.024;2023-12-28T08:06:27;100836.34;;;10.23;100.00
58955;BME280;45815;52.334;5.024;2023-12-28T08:08:54;100840.69;;;10.23;100.00
58955;BME280;45815;52.334;5.024;2023-12-28T08:11:19;100837.03;;;10.14;100.00
58955;BME280;45815;52.334;5.024;2023-12-28T08:13:46;100842.38;;;10.21;100.00
58955;BME280;45815;52.334;5.024;2023-12-28T08:16:12;100839.84;;;10.24;100.00
58955;BME280;45815;52.334;5.024;2023-12-28T08:18:37;100855.72;;;10.28;100.00
58955;BME280;45815;52.334;5.024;2023-12-28T08:21:02;100844.22;;;10.23;100.00
58955;BME280;45815;52.334;5.024;2023-12-28T08:23:28;100846.84;;;10.23;100.00
58955;BME280;45815;52.334;5.024;2023-12-28T08:25:53;100839.88;;;10.25;100.00
58955;BME280;45815;52.334;5.024;2023-12-28T08:28:19;100842.31;;;10.16;100.00
58955;BME280;45815;52.334;5.024;2023-12-28T08:30:44;100843.34;;;10.24;100.00
58955;BME280;45815;52.334;5.024;2023-12-28T08:33:09;100850.31;;;10.22;100.00
58955;BME280;45815;52.334;5.024;2023-12-28T08:35:35;100853.84;;;10.24;100.00
58955;BME280;45815;52.334;5.024;2023-12-28T08:38:00;100846.84;;;10.23;100.00
58955;BME280;45815;52.334;5.024;2023-12-28T08:40:26;100846.03;;;10.27;100.00
58955;BME280;45815;52.334;5.024;2023-12-28T08:42:51;100855.72;;;10.28;100.00
58955;BME280;45815;52.334;5.024;2023-12-28T08:45:16;100859.22;;;10.29;100.00
58955;BME280;45815;52.334;5.024;2023-12-28T08:47:42;100847.91;;;10.31;100.00
58955;BME280;45815;52.334;5.024;2023-12-28T08:50:07;100844.41;;;10.31;100.00
58955;BME280;45815;52.334;5.024;2023-12-28T08:52:33;100867.88;;;10.26;100.00
58955;BME280;45815;52.334;5.024;2023-12-28T08:54:58;100859.09;;;10.24;100.00
58955;BME280;45815;52.334;5.024;2023-12-28T08:57:25;100855.72;;;10.28;100.00
58955;BME280;45815;52.334;5.024;2023-12-28T08:59:51;100868.88;;;10.31;100.00
58955;BME280;45815;52.334;5.024;2023-12-28T09:02:16;100871.50;;;10.31;100.00
58955;BME280;45815;52.334;5.024;2023-12-28T09:04:41;100868.94;;;10.33;100.00
58955;BME280;45815;52.334;5.024;2023-12-28T09:07:07;100870.69;;;10.34;100.00
58955;BME280;45815;52.334;5.024;2023-12-28T09:09:32;100871.59;;;10.36;100.00
58955;BME280;45815;52.334;5.024;2023-12-28T09:11:58;100889.09;;;10.37;100.00
58955;BME280;45815;52.334;5.024;2023-12-28T09:14:23;100883.06;;;10.40;100.00
58955;BME280;45815;52.334;5.024;2023-12-28T09:16:48;100873.47;;;10.42;100.00
58955;BME280;45815;52.334;5.024;2023-12-28T09:19:14;100883.94;;;10.42;100.00
58955;BME280;45815;52.334;5.024;2023-12-28T09:21:39;100898.75;;;10.38;100.00
58955;BME280;45815;52.334;5.024;2023-12-28T09:24:06;100897.94;;;10.41;100.00
58955;BME280;45815;52.334;5.024;2023-12-28T09:26:33;100891.78;;;10.39;100.00
58955;BME280;45815;52.334;5.024;2023-12-28T09:28:59;100894.41;;;10.39;100.00
58955;BME280;45815;52.334;5.024;2023-12-28T09:31:24;100898.91;;;10.44;100.00
58955;BME280;45815;52.334;5.024;2023-12-28T09:33:50;100898.09;;;10.47;100.00
58955;BME280;45815;52.334;5.024;2023-12-28T09:36:15;100883.25;;;10.50;100.00
58955;BME280;45815;52.334;5.024;2023-12-28T09:38:42;100885.78;;;10.46;100.00
58955;BME280;45815;52.334;5.024;2023-12-28T09:41:15;100891.13;;;10.49;100.00
58955;BME280;45815;52.334;5.024;2023-12-28T09:46:44;100893.84;;;10.55;100.00
58955;BME280;45815;52.334;5.024;2023-12-28T09:49:11;100901.78;;;10.58;100.00
58955;BME280;45815;52.334;5.024;2023-12-28T09:51:37;100914.06;;;10.59;100.00
58955;BME280;45815;52.334;5.024;2023-12-28T09:54:05;100906.22;;;10.61;100.00
58955;BME280;45815;52.334;5.024;2023-12-28T09:56:32;100909.75;;;10.63;100.00
58955;BME280;45815;52.334;5.024;2023-12-28T09:58:58;100922.03;;;10.64;100.00
58955;BME280;45815;52.334;5.024;2023-12-28T10:01:25;100912.47;;;10.67;100.00
58955;BME280;45815;52.334;5.024;2023-12-28T10:03:50;100911.56;;;10.65;100.00
58955;BME280;45815;52.334;5.024;2023-12-28T10:06:16;100925.66;;;10.70;100.00
58955;BME280;45815;52.334;5.024;2023-12-28T10:08:45;100921.34;;;10.72;100.00
58955;BME280;45815;52.334;5.024;2023-12-28T10:11:11;100919.59;;;10.74;100.00
58955;BME280;45815;52.334;5.024;2023-12-28T10:13:37;100940.59;;;10.74;100.00
58955;BME280;45815;52.334;5.024;2023-12-28T10:16:02;100927.47;;;10.74;100.00
58955;BME280;45815;52.334;5.024;2023-12-28T10:18:28;100935.25;;;10.70;100.00
58955;BME280;45815;52.334;5.024;2023-12-28T10:20:54;100922.91;;;10.64;100.00
58955;BME280;45815;52.334;5.024;2023-12-28T10:23:20;100943.13;;;10.68;100.00
58955;BME280;45815;52.334;5.024;2023-12-28T10:25:46;100949.25;;;10.69;100.00
58955;BME280;45815;52.334;5.024;2023-12-28T10:28:13;100951.06;;;10.71;100.00
58955;BME280;45815;52.334;5.024;2023-12-28T10:30:39;100943.00;;;10.62;100.00
58955;BME280;45815;52.334;5.024;2023-12-28T10:33:08;100944.69;;;10.60;100.00
58955;BME280;45815;52.334;5.024;2023-12-28T10:35:33;100941.16;;;10.58;100.00
58955;BME280;45815;52.334;5.024;2023-12-28T10:38:02;100939.28;;;10.52;100.00
58955;BME280;45815;52.334;5.024;2023-12-28T10:40:29;100938.47;;;10.55;100.00
58955;BME280;45815;52.334;5.024;2023-12-28T10:42:58;100940.19;;;10.53;100.00
58955;BME280;45815;52.334;5.024;2023-12-28T10:45:28;100935.00;;;10.56;100.00
58955;BME280;45815;52.334;5.024;2023-12-28T10:48:09;100932.34;;;10.54;100.00
58955;BME280;45815;52.334;5.024;2023-12-28T10:58:31;100968.66;;;10.75;100.00
58955;BME280;45815;52.334;5.024;2023-12-28T11:01:02;100929.44;;;10.85;100.00
58955;BME280;45815;52.334;5.024;2023-12-28T11:03:34;100910.16;;;10.83;100.00
58955;BME280;45815;52.334;5.024;2023-12-28T11:06:02;100936.41;;;10.83;100.00
58955;BME280;45815;52.334;5.024;2023-12-28T11:08:29;100913.78;;;10.91;100.00
58955;BME280;45815;52.334;5.024;2023-12-28T11:10:55;100900.50;;;10.82;100.00
58955;BME280;45815;52.334;5.024;2023-12-28T11:13:22;100923.47;;;10.92;100.00
58955;BME280;45815;52.334;5.024;2023-12-28T11:15:48;100912.94;;;10.92;100.00
58955;BME280;45815;52.334;5.024;2023-12-28T11:18:16;100900.56;;;10.85;100.00
58955;BME280;45815;52.334;5.024;2023-12-28T11:20:43;100891.94;;;10.92;100.00
58955;BME280;45815;52.334;5.024;2023-12-28T11:23:10;100905.16;;;10.96;100.00
58955;BME280;45815;52.334;5.024;2023-12-28T11:25:36;100908.63;;;10.94;100.00
58955;BME280;45815;52.334;5.024;2023-12-28T11:28:09;100901.53;;;10.90;100.00
58955;BME280;45815;52.334;5.024;2023-12-28T11:30:35;100884.91;;;10.91;100.00
58955;BME280;45815;52.334;5.024;2023-12-28T11:33:02;100898.06;;;10.92;100.00
58955;BME280;45815;52.334;5.024;2023-12-28T11:35:35;100898.09;;;10.94;100.00
58955;BME280;45815;52.334;5.024;2023-12-28T11:38:03;100907.75;;;10.95;100.00
58955;BME280;45815;52.334;5.024;2023-12-28T11:40:40;100902.53;;;10.96;100.00
58955;BME280;45815;52.334;5.024;2023-12-28T11:43:20;100883.28;;;10.96;100.00
58955;BME280;45815;52.334;5.024;2023-12-28T11:45:48;100881.47;;;10.95;100.00
58955;BME280;45815;52.334;5.024;2023-12-28T11:48:22;100889.41;;;10.96;100.00
58955;BME280;45815;52.334;5.024;2023-12-28T11:50:48;100896.53;;;11.04;100.00
58955;BME280;45815;52.334;5.024;2023-12-28T11:53:14;100900.91;;;11.03;100.00
58955;BME280;45815;52.334;5.024;2023-12-28T11:55:39;100887.69;;;10.98;100.00
58955;BME280;45815;52.334;5.024;2023-12-28T11:58:05;100883.31;;;10.99;100.00
58955;BME280;45815;52.334;5.024;2023-12-28T12:00:30;100887.56;;;10.92;100.00
58955;BME280;45815;52.334;5.024;2023-12-28T12:02:57;100886.66;;;10.89;100.00
58955;BME280;45815;52.334;5.024;2023-12-28T12:05:22;100887.44;;;10.85;100.00
58955;BME280;45815;52.334;5.024;2023-12-28T12:07:49;100899.56;;;10.78;100.00
58955;BME280;45815;52.334;5.024;2023-12-28T12:10:15;100899.59;;;10.81;100.00
58955;BME280;45815;52.334;5.024;2023-12-28T12:12:41;100907.53;;;10.83;100.00
58955;BME280;45815;52.334;5.024;2023-12-28T12:15:08;100896.19;;;10.85;100.00
58955;BME280;45815;52.334;5.024;2023-12-28T12:17:33;100895.31;;;10.85;100.00
58955;BME280;45815;52.334;5.024;2023-12-28T12:19:59;100903.19;;;10.86;100.00
58955;BME280;45815;52.334;5.024;2023-12-28T12:22:25;100895.31;;;10.85;100.00
58955;BME280;45815;52.334;5.024;2023-12-28T12:24:51;100899.69;;;10.84;100.00
58955;BME280;45815;52.334;5.024;2023-12-28T12:27:17;100887.44;;;10.85;100.00
58955;BME280;45815;52.334;5.024;2023-12-28T12:29:42;100886.56;;;10.86;100.00
58955;BME280;45815;52.334;5.024;2023-12-28T12:32:08;100874.25;;;10.82;100.00
58955;BME280;45815;52.334;5.024;2023-12-28T12:34:34;100873.53;;;10.90;100.00
58955;BME280;45815;52.334;5.024;2023-12-28T12:37:00;100866.59;;;10.94;100.00
58955;BME280;45815;52.334;5.024;2023-12-28T12:39:26;100871.06;;;10.98;100.00
58955;BME280;45815;52.334;5.024;2023-12-28T12:41:52;100858.88;;;11.03;100.00
58955;BME280;45815;52.334;5.024;2023-12-28T12:44:20;100872.09;;;11.08;100.00
58955;BME280;45815;52.334;5.024;2023-12-28T12:46:46;100848.53;;;11.12;100.00